createdAt,value
2019-04-03T00:01:15.687Z,11.10
2019-04-03T00:03:44.534Z,11.10
2019-04-03T00:06:26.863Z,11.10
2019-04-03T00:09:02.334Z,11.00
2019-04-03T00:11:31.203Z,10.80
2019-04-03T00:14:06.721Z,10.50
2019-04-03T00:16:35.649Z,10.50
2019-04-03T00:19:04.493Z,10.40
2019-04-03T00:21:40.378Z,10.40
2019-04-03T00:24:10.436Z,10.40
2019-04-03T00:26:39.218Z,10.40
2019-04-03T00:29:15.361Z,10.30
2019-04-03T00:31:44.217Z,10.30
2019-04-03T00:34:13.424Z,10.30
2019-04-03T00:36:49.918Z,10.10
2019-04-03T00:39:18.751Z,10.00
2019-04-03T00:41:47.647Z,10.00
2019-04-03T00:44:24.263Z,10.20
2019-04-03T00:46:55.467Z,10.30
2019-04-03T00:49:26.036Z,10.40
2019-04-03T00:52:02.513Z,10.40
2019-04-03T00:54:32.548Z,10.30
2019-04-03T00:57:01.815Z,10.30
2019-04-03T00:59:38.191Z,10.20
2019-04-03T01:02:07.030Z,10.20
2019-04-03T01:04:36.331Z,10.20
2019-04-03T01:07:13.130Z,10.10
2019-04-03T01:09:48.791Z,10.20
2019-04-03T01:12:32.284Z,10.20
2019-04-03T01:15:01.670Z,10.30
2019-04-03T01:17:34.055Z,10.20
2019-04-03T01:20:08.898Z,10.30
2019-04-03T01:22:37.900Z,10.20
2019-04-03T01:25:09.027Z,10.20
2019-04-03T01:27:45.038Z,10.20
2019-04-03T01:30:14.348Z,10.20
2019-04-03T01:32:43.286Z,10.20
2019-04-03T01:35:19.382Z,10.20
2019-04-03T01:37:50.040Z,10.20
2019-04-03T01:40:20.899Z,10.20
2019-04-03T01:42:56.846Z,10.20
2019-04-03T01:45:27.020Z,10.20
2019-04-03T01:47:58.223Z,10.20
2019-04-03T01:50:36.127Z,10.20
2019-04-03T01:53:04.969Z,10.20
2019-04-03T01:55:34.734Z,10.20
2019-04-03T01:58:11.043Z,10.20
2019-04-03T02:00:40.100Z,10.20
2019-04-03T02:03:10.260Z,10.20
2019-04-03T02:05:47.196Z,10.20
2019-04-03T02:08:23.333Z,10.20
2019-04-03T02:11:06.489Z,10.10
2019-04-03T02:13:42.112Z,10.20
2019-04-03T02:16:18.229Z,10.20
2019-04-03T02:18:47.102Z,10.20
2019-04-03T02:21:16.402Z,10.30
2019-04-03T02:23:51.808Z,10.50
2019-04-03T02:26:20.720Z,10.40
2019-04-03T02:28:49.546Z,10.40
2019-04-03T02:31:24.980Z,10.40
2019-04-03T02:33:53.868Z,10.50
2019-04-03T02:36:22.767Z,10.50
2019-04-03T02:38:58.458Z,10.50
2019-04-03T02:41:27.374Z,10.50
2019-04-03T02:43:56.570Z,10.50
2019-04-03T02:46:32.338Z,10.50
2019-04-03T02:49:01.437Z,10.50
2019-04-03T02:51:30.470Z,10.60
2019-04-03T02:54:05.916Z,10.60
2019-04-03T02:56:35.500Z,10.60
2019-04-03T02:59:04.450Z,10.60
2019-04-03T03:01:40.707Z,10.50
2019-04-03T03:04:09.675Z,10.50
2019-04-03T03:06:38.511Z,10.40
2019-04-03T03:09:14.263Z,10.40
2019-04-03T03:11:49.701Z,10.30
2019-04-03T03:14:32.394Z,10.20
2019-04-03T03:17:01.372Z,10.20
2019-04-03T03:19:33.242Z,10.20
2019-04-03T03:22:08.355Z,10.20
2019-04-03T03:24:37.416Z,10.30
2019-04-03T03:27:09.432Z,10.40
2019-04-03T03:29:44.062Z,10.40
2019-04-03T03:32:20.037Z,10.40
2019-04-03T03:34:53.750Z,10.40
2019-04-03T03:37:22.239Z,10.30
2019-04-03T03:39:52.236Z,10.30
2019-04-03T03:42:21.773Z,10.30
2019-04-03T03:44:58.178Z,10.30
2019-04-03T03:47:27.327Z,10.20
2019-04-03T03:49:56.434Z,10.20
2019-04-03T03:52:36.084Z,10.10
2019-04-03T03:55:03.933Z,10.00
2019-04-03T03:57:32.980Z,10.00
2019-04-03T04:00:09.244Z,10.00
2019-04-03T04:02:42.703Z,10.10
2019-04-03T04:05:11.357Z,10.10
2019-04-03T04:07:46.770Z,10.10
2019-04-03T04:10:15.627Z,10.20
2019-04-03T04:12:59.039Z,10.20
2019-04-03T04:15:34.685Z,10.20
2019-04-03T04:18:13.847Z,10.20
2019-04-03T04:20:42.422Z,10.20
2019-04-03T04:23:11.364Z,10.20
2019-04-03T04:25:47.835Z,10.20
2019-04-03T04:28:17.336Z,10.30
2019-04-03T04:30:49.298Z,10.30
2019-04-03T04:33:25.211Z,10.30
2019-04-03T04:35:53.991Z,10.30
2019-04-03T04:38:22.807Z,10.30
2019-04-03T04:41:01.359Z,10.20
2019-04-03T04:43:29.165Z,10.20
2019-04-03T04:45:58.101Z,10.30
2019-04-03T04:48:34.298Z,10.40
2019-04-03T04:51:03.166Z,10.40
2019-04-03T04:53:32.168Z,10.40
2019-04-03T04:56:07.422Z,10.30
2019-04-03T04:58:36.443Z,10.30
2019-04-03T05:01:05.282Z,10.30
2019-04-03T05:03:40.622Z,10.40
2019-04-03T05:06:09.566Z,10.30
2019-04-03T05:08:38.539Z,10.30
2019-04-03T05:11:14.495Z,10.30
2019-04-03T05:13:50.127Z,10.30
2019-04-03T05:16:32.286Z,10.20
2019-04-03T05:19:09.566Z,10.20
2019-04-03T05:21:31.765Z,10.20
2019-04-03T05:24:13.155Z,10.10
2019-04-03T05:26:37.691Z,10.10
2019-04-03T05:29:06.529Z,10.10
2019-04-03T05:31:42.101Z,10.20
2019-04-03T05:34:12.397Z,10.20
2019-04-03T05:36:41.622Z,10.20
2019-04-03T05:39:17.196Z,10.20
2019-04-03T05:41:46.081Z,10.20
2019-04-03T05:44:14.878Z,10.20
2019-04-03T05:46:50.628Z,10.30
2019-04-03T05:49:19.726Z,10.30
2019-04-03T05:51:49.132Z,10.30
2019-04-03T05:54:24.734Z,10.40
2019-04-03T05:56:53.687Z,10.50
2019-04-03T06:01:57.524Z,10.70
2019-04-03T06:04:26.345Z,10.80
2019-04-03T06:07:02.220Z,10.80
2019-04-03T06:09:31.057Z,10.90
2019-04-03T07:05:19.943Z,11.00
2019-04-03T07:07:56.972Z,10.90
2019-04-03T07:10:26.147Z,10.90
2019-04-03T21:47:54.877Z,11.10
2019-04-03T21:50:23.851Z,11.10
2019-04-03T21:52:53.858Z,11.10
2019-04-03T21:55:31.028Z,11.00
2019-04-03T21:58:00.513Z,10.90
2019-04-03T22:01:06.739Z,10.90
2019-04-03T22:03:35.706Z,10.90
2019-04-03T22:06:04.706Z,10.80
2019-04-03T22:08:40.654Z,10.80
2019-04-03T22:11:09.769Z,10.80
2019-04-03T22:13:39.082Z,10.80
2019-04-03T22:16:14.978Z,10.80
2019-04-03T22:18:44.046Z,10.70
2019-04-03T22:21:13.133Z,10.80
2019-04-03T22:23:49.328Z,10.90
2019-04-03T22:26:24.497Z,11.00
2019-04-03T22:29:06.372Z,11.00
2019-04-03T22:31:35.372Z,10.90
2019-04-03T22:34:04.388Z,10.80
2019-04-03T22:36:39.983Z,10.70
2019-04-03T22:39:09.451Z,10.70
2019-04-03T22:41:38.443Z,10.70
2019-04-03T22:44:16.744Z,10.60
2019-04-03T22:46:45.571Z,10.60
2019-04-03T22:51:50.757Z,11.10
2019-04-03T22:54:19.718Z,11.10
2019-04-03T22:56:48.715Z,10.90
2019-04-03T22:59:25.254Z,10.90
2019-04-03T23:01:54.214Z,10.80
2019-04-03T23:04:23.173Z,10.80
2019-04-03T23:06:58.836Z,10.60
2019-04-03T23:09:27.855Z,10.60
2019-04-03T23:11:56.813Z,10.50
2019-04-03T23:14:32.625Z,10.40
2019-04-03T23:17:01.596Z,10.40
2019-04-03T23:19:32.363Z,10.40
2019-04-03T23:22:08.312Z,10.40
2019-04-03T23:24:44.356Z,10.40
2019-04-03T23:27:26.645Z,10.50
2019-04-03T23:30:03.017Z,10.70
2019-04-03T23:32:31.993Z,10.70
2019-04-03T23:35:07.425Z,10.70
2019-04-03T23:37:36.426Z,10.70
2019-04-03T23:40:07.210Z,10.60
2019-04-03T23:42:42.588Z,10.60
2019-04-03T23:45:13.460Z,10.70
2019-04-03T23:47:42.591Z,10.70
2019-04-03T23:50:21.639Z,10.70
2019-04-03T23:52:49.913Z,10.60
2019-04-03T23:55:18.875Z,10.60
2019-04-03T23:57:54.780Z,10.50
